FBSK

Sir Seretse Khama International Airport

Gaborone, Botswana
METAR FBSK 220500Z VRB02KT CAVOK 04/04 Q1028 NOSIG
Observed Flight Rules
Jun-22 @ 05:00 UTC (48 minutes ago) Visual Flight Rules
Wind Visibility Clouds
Variable at 2 knots 10,000+ meters
  • Clear skies
Temperatures Readings
Current 4°C / 39°F
Dewpoint 4°C / 39°F
Humidity 100%
Altimeter 30.35" Hg
Pressure 1028 hPa
Elevation 1005
METAR FBSK 220500Z VRB02KT CAVOK 04/04 Q1028 NOSIG
Observed Flight Rules
Jun-22 @ 05:00 UTC
(48 minutes ago)
VFR
Wind Visibility
Variable at 2 knots 10,000+ meters
Clouds
  • Clear skies
Temperature Dewpoint
4°C / 39°F 4°C / 39°F
Humidity Altimeter Pressure
100% 30.35" Hg 1028 hPa